createdAt,value
2023-05-02T00:01:21.497Z,68.63
2023-05-02T00:03:48.820Z,69.32
2023-05-02T00:06:16.215Z,69.68
2023-05-02T00:08:43.585Z,69.87
2023-05-02T00:11:10.823Z,69.55
2023-05-02T00:13:38.089Z,69.52
2023-05-02T00:16:05.865Z,69.79
2023-05-02T00:18:33.314Z,69.57
2023-05-02T00:21:00.573Z,69.75
2023-05-02T00:23:27.865Z,69.95
2023-05-02T00:25:55.080Z,69.90
2023-05-02T00:28:22.534Z,69.90
2023-05-02T00:30:49.818Z,69.98
2023-05-02T00:33:17.108Z,69.73
2023-05-02T00:35:44.417Z,69.92
2023-05-02T00:38:11.804Z,69.90
2023-05-02T00:40:48.691Z,69.97
2023-05-02T00:43:16.341Z,70.63
2023-05-02T00:45:44.225Z,71.39
2023-05-02T00:48:11.731Z,71.15
2023-05-02T00:50:43.511Z,71.40
2023-05-02T00:53:11.248Z,71.46
2023-05-02T00:55:38.572Z,71.59
2023-05-02T00:58:09.566Z,71.71
2023-05-02T01:01:08.804Z,71.92
2023-05-02T01:03:49.921Z,70.78
2023-05-02T01:06:17.373Z,70.22
2023-05-02T01:09:10.622Z,70.33
2023-05-02T01:11:37.932Z,70.40
2023-05-02T01:14:05.943Z,70.57
2023-05-02T01:16:33.343Z,70.76
2023-05-02T01:19:00.708Z,70.57
2023-05-02T01:21:28.081Z,70.64
2023-05-02T01:24:18.209Z,71.08
2023-05-02T01:27:15.443Z,70.87
2023-05-02T01:29:42.932Z,70.61
2023-05-02T01:32:10.218Z,70.52
2023-05-02T01:34:38.851Z,70.00
2023-05-02T01:37:06.233Z,70.45
2023-05-02T01:39:33.614Z,70.92
2023-05-02T01:42:02.586Z,70.16
2023-05-02T01:44:29.920Z,69.70
2023-05-02T01:46:57.223Z,69.67
2023-05-02T01:49:25.109Z,69.71
2023-05-02T01:51:52.703Z,70.23
2023-05-02T01:54:21.482Z,71.11
2023-05-02T01:56:49.381Z,71.09
2023-05-02T01:59:19.916Z,71.39
2023-05-02T02:01:48.135Z,70.86
2023-05-02T02:04:16.140Z,71.45
2023-05-02T02:06:46.459Z,71.24
2023-05-02T02:09:14.587Z,71.17
2023-05-02T02:11:50.574Z,71.38
2023-05-02T02:14:20.155Z,71.35
2023-05-02T02:16:47.548Z,70.79
2023-05-02T02:19:15.572Z,71.04
2023-05-02T02:21:43.450Z,71.12
2023-05-02T02:24:10.839Z,70.93
2023-05-02T02:26:38.064Z,70.66
2023-05-02T02:29:05.469Z,70.75
2023-05-02T02:31:36.199Z,71.01
2023-05-02T02:34:03.687Z,71.22
2023-05-02T02:37:01.055Z,70.48
2023-05-02T02:39:45.262Z,70.36
2023-05-02T02:42:28.422Z,70.39
2023-05-02T02:45:07.713Z,70.19
2023-05-02T02:47:42.371Z,70.71
2023-05-02T02:50:27.285Z,70.23
2023-05-02T02:53:23.135Z,70.37
2023-05-02T02:55:56.170Z,70.86
2023-05-02T02:58:43.811Z,70.54
2023-05-02T03:01:15.092Z,70.60
2023-05-02T03:03:43.181Z,70.75
2023-05-02T03:06:10.464Z,70.84
2023-05-02T03:08:41.727Z,71.48
2023-05-02T03:11:12.921Z,71.25
2023-05-02T03:13:40.440Z,72.13
2023-05-02T03:16:41.463Z,71.27
2023-05-02T03:19:13.813Z,71.52
2023-05-02T03:21:41.854Z,71.65
2023-05-02T03:24:19.145Z,71.53
2023-05-02T03:26:48.277Z,71.55
2023-05-02T03:29:18.811Z,70.82
2023-05-02T03:31:46.235Z,71.10
2023-05-02T03:34:13.891Z,71.48
2023-05-02T03:36:42.613Z,71.51
2023-05-02T03:39:09.849Z,71.13
2023-05-02T03:41:37.497Z,70.65
2023-05-02T03:44:08.513Z,70.87
2023-05-02T03:46:36.625Z,70.42
2023-05-02T03:49:10.576Z,70.49
2023-05-02T03:51:39.068Z,70.83
2023-05-02T03:54:06.310Z,70.32
2023-05-02T03:56:34.911Z,70.26
2023-05-02T03:59:14.041Z,70.25
2023-05-02T04:01:42.017Z,70.78
2023-05-02T04:04:11.534Z,70.24
2023-05-02T04:06:46.727Z,70.15
2023-05-02T04:09:14.487Z,69.79
2023-05-02T04:11:53.419Z,69.23
2023-05-02T04:14:20.779Z,69.59
2023-05-02T04:16:50.149Z,69.39
2023-05-02T04:19:22.131Z,68.70
2023-05-02T04:21:50.600Z,68.87
2023-05-02T04:24:18.310Z,68.31
2023-05-02T04:26:47.679Z,68.02
2023-05-02T04:29:15.422Z,67.99
2023-05-02T04:31:43.231Z,67.97
2023-05-02T04:34:11.584Z,68.45
2023-05-02T04:36:46.040Z,68.15
2023-05-02T04:39:17.891Z,67.97
2023-05-02T04:41:55.137Z,67.83
2023-05-02T04:44:24.857Z,67.99
2023-05-02T04:46:52.625Z,67.98
2023-05-02T04:49:20.032Z,67.68
2023-05-02T04:51:47.511Z,67.43
2023-05-02T04:54:15.766Z,66.98
2023-05-02T04:56:44.461Z,67.10
2023-05-02T04:59:13.055Z,67.32
2023-05-02T05:01:40.800Z,67.72
2023-05-02T05:04:09.681Z,67.59
2023-05-02T05:06:37.225Z,68.20
2023-05-02T05:09:06.182Z,67.92
2023-05-02T05:11:35.394Z,68.12
2023-05-02T05:14:04.367Z,69.43
2023-05-02T05:16:35.061Z,68.29
2023-05-02T05:19:02.619Z,67.78
2023-05-02T05:21:30.124Z,68.00
2023-05-02T05:23:58.893Z,67.34
2023-05-02T05:26:29.040Z,67.44
2023-05-02T05:28:56.576Z,67.75
2023-05-02T05:31:27.491Z,67.29
2023-05-02T05:33:58.618Z,66.75
2023-05-02T05:36:27.285Z,66.06
2023-05-02T05:38:54.990Z,66.06
2023-05-02T05:41:23.514Z,66.18
2023-05-02T05:43:56.732Z,65.64
2023-05-02T05:46:26.755Z,64.82
2023-05-02T05:48:54.794Z,64.43
2023-05-02T05:51:22.762Z,63.90
2023-05-02T05:53:50.511Z,64.22
2023-05-02T05:56:18.433Z,64.33
2023-05-02T05:58:56.809Z,64.44
2023-05-02T06:01:24.882Z,64.80
2023-05-02T06:03:56.332Z,64.91
2023-05-02T06:06:24.207Z,64.98
2023-05-02T06:08:52.553Z,65.27
2023-05-02T06:11:23.084Z,65.57
2023-05-02T06:13:57.748Z,65.59
2023-05-02T06:16:45.461Z,64.59
2023-05-02T06:19:13.416Z,64.11
2023-05-02T06:21:43.646Z,64.13
2023-05-02T06:24:14.162Z,64.30
2023-05-02T06:26:41.864Z,64.35
2023-05-02T06:29:09.511Z,64.90
2023-05-02T06:31:36.983Z,65.16
2023-05-02T06:34:04.714Z,65.01
2023-05-02T06:36:32.420Z,64.83
2023-05-02T06:39:00.259Z,63.86
2023-05-02T06:41:29.236Z,63.61
2023-05-02T06:44:04.654Z,62.91
2023-05-02T06:46:35.296Z,63.32
2023-05-02T06:49:02.729Z,63.68
2023-05-02T06:51:30.299Z,64.08
2023-05-02T06:53:59.684Z,64.51
2023-05-02T06:56:27.413Z,64.83
2023-05-02T06:58:55.373Z,64.51
2023-05-02T07:01:23.263Z,64.43
2023-05-02T07:03:51.257Z,64.52
2023-05-02T07:06:19.078Z,64.00
2023-05-02T07:08:46.940Z,64.08
2023-05-02T07:11:17.398Z,63.65
2023-05-02T07:13:47.906Z,63.71
2023-05-02T07:16:15.775Z,63.15
2023-05-02T07:18:43.500Z,62.99
2023-05-02T07:21:11.197Z,62.68
2023-05-02T07:23:38.512Z,62.06
2023-05-02T07:26:06.630Z,62.35
2023-05-02T07:28:43.720Z,62.24
2023-05-02T07:31:14.163Z,62.51
2023-05-02T07:33:42.592Z,62.52
2023-05-02T07:36:11.947Z,62.12
2023-05-02T07:38:50.143Z,62.03
2023-05-02T07:41:18.133Z,61.26
2023-05-02T07:43:45.631Z,61.64
2023-05-02T07:46:27.944Z,61.52
2023-05-02T07:49:22.398Z,61.80
2023-05-02T07:51:50.314Z,61.63
2023-05-02T07:54:37.520Z,61.62
2023-05-02T07:57:18.327Z,61.69
2023-05-02T07:59:46.189Z,61.22
2023-05-02T08:02:14.394Z,60.68
2023-05-02T08:04:42.226Z,60.63
2023-05-02T08:07:18.597Z,61.10
2023-05-02T08:09:46.467Z,60.96
2023-05-02T08:12:13.945Z,60.55
2023-05-02T08:14:46.280Z,59.51
2023-05-02T08:17:42.080Z,59.81
2023-05-02T08:20:42.899Z,59.76
2023-05-02T08:23:10.838Z,59.72
2023-05-02T08:25:38.452Z,59.88
2023-05-02T08:28:06.079Z,59.66
2023-05-02T08:30:35.810Z,59.81
2023-05-02T08:33:06.372Z,59.07
2023-05-02T08:35:34.425Z,59.49
2023-05-02T08:38:02.502Z,59.15
2023-05-02T08:40:40.787Z,59.39
2023-05-02T08:43:11.854Z,59.50
2023-05-02T08:45:43.941Z,59.86
2023-05-02T08:48:13.095Z,60.06
2023-05-02T08:50:42.690Z,59.53
2023-05-02T08:53:11.059Z,59.49
2023-05-02T08:55:42.059Z,58.81
2023-05-02T08:58:11.033Z,59.02
2023-05-02T09:00:42.605Z,58.38
2023-05-02T09:03:39.447Z,59.05
2023-05-02T09:06:13.690Z,58.50
2023-05-02T09:08:41.524Z,58.07
2023-05-02T09:11:09.743Z,57.87
2023-05-02T09:13:43.768Z,58.27
2023-05-02T09:16:17.786Z,58.50
2023-05-02T09:18:46.932Z,58.42
2023-05-02T09:21:19.733Z,57.62
2023-05-02T09:23:52.186Z,57.84
2023-05-02T09:26:21.922Z,57.88
2023-05-02T09:28:50.626Z,58.06
2023-05-02T09:31:37.518Z,57.68
2023-05-02T09:34:11.359Z,57.93
2023-05-02T09:36:43.332Z,57.49
2023-05-02T09:39:16.842Z,56.50
2023-05-02T09:41:48.037Z,56.39
2023-05-02T09:44:19.735Z,55.61
2023-05-02T09:46:52.080Z,55.31
2023-05-02T09:49:20.263Z,55.53
2023-05-02T09:51:48.432Z,56.03
2023-05-02T09:54:37.214Z,55.82
2023-05-02T09:57:04.778Z,55.63
2023-05-02T09:59:32.252Z,55.41
2023-05-02T10:02:01.686Z,55.50
2023-05-02T10:04:30.670Z,55.45
2023-05-02T10:06:59.131Z,54.84
2023-05-02T10:09:26.900Z,55.42
2023-05-02T10:11:55.493Z,55.58
2023-05-02T10:14:25.150Z,56.66
2023-05-02T10:17:08.858Z,55.80
2023-05-02T10:19:45.789Z,55.83
2023-05-02T10:22:13.559Z,56.12
2023-05-02T10:24:40.915Z,56.31
2023-05-02T10:27:08.439Z,56.05
2023-05-02T10:29:36.228Z,56.41
2023-05-02T10:32:05.099Z,56.25
2023-05-02T10:34:32.935Z,56.33
2023-05-02T10:37:03.234Z,56.45
2023-05-02T10:39:31.375Z,57.51
2023-05-02T10:41:59.517Z,57.62
2023-05-02T10:44:37.029Z,57.49
2023-05-02T10:47:22.037Z,56.59
2023-05-02T10:50:03.180Z,55.67
2023-05-02T10:52:38.662Z,56.00
2023-05-02T10:55:22.768Z,56.27
2023-05-02T10:58:00.423Z,55.87
2023-05-02T11:00:38.800Z,56.06
2023-05-02T11:03:06.527Z,56.30
2023-05-02T11:05:37.136Z,55.87
2023-05-02T11:08:20.287Z,55.26
2023-05-02T11:10:49.965Z,55.05
2023-05-02T11:13:17.661Z,55.56
2023-05-02T11:15:45.566Z,55.18
2023-05-02T11:18:13.538Z,56.15
2023-05-02T11:20:45.474Z,55.94
2023-05-02T11:23:16.151Z,55.15
2023-05-02T11:25:48.316Z,55.59
2023-05-02T11:28:37.811Z,57.75
2023-05-02T11:31:10.588Z,54.83
2023-05-02T11:33:38.857Z,55.28
2023-05-02T11:36:07.341Z,54.63
2023-05-02T11:38:38.303Z,54.32
2023-05-02T11:41:06.132Z,55.04
2023-05-02T11:43:34.052Z,53.75
2023-05-02T11:46:02.707Z,54.58
2023-05-02T11:48:30.825Z,54.49
2023-05-02T11:51:02.421Z,54.38
2023-05-02T11:53:31.778Z,53.88
2023-05-02T11:56:04.701Z,54.20
2023-05-02T11:58:34.269Z,54.55
2023-05-02T12:01:15.467Z,54.68
2023-05-02T12:03:44.220Z,54.79
2023-05-02T12:06:13.752Z,55.37
2023-05-02T12:08:43.489Z,55.23
2023-05-02T12:11:13.662Z,54.91
2023-05-02T12:13:55.418Z,55.35
2023-05-02T12:16:22.808Z,55.48
2023-05-02T12:18:50.213Z,56.60
2023-05-02T12:21:45.363Z,55.28
2023-05-02T12:24:15.560Z,55.40
2023-05-02T12:26:43.605Z,56.33
2023-05-02T12:29:12.801Z,57.41
2023-05-02T12:31:40.814Z,57.79
2023-05-02T12:34:08.465Z,57.54
2023-05-02T12:36:36.344Z,57.62
2023-05-02T12:39:04.595Z,57.49
2023-05-02T12:41:38.722Z,57.13
2023-05-02T12:44:07.396Z,57.55
2023-05-02T12:46:34.990Z,57.89
2023-05-02T12:49:09.758Z,57.25
2023-05-02T12:51:38.453Z,56.32
2023-05-02T12:54:06.795Z,56.59
2023-05-02T12:56:40.864Z,56.02
2023-05-02T12:59:08.373Z,56.25
2023-05-02T13:01:36.090Z,57.04
2023-05-02T13:04:04.061Z,56.92
2023-05-02T13:06:31.693Z,56.44
2023-05-02T13:08:59.461Z,56.65
2023-05-02T13:11:27.299Z,56.71
2023-05-02T13:13:55.159Z,57.16
2023-05-02T13:16:22.469Z,56.82
2023-05-02T13:18:49.945Z,56.60
2023-05-02T13:21:17.307Z,57.03
2023-05-02T13:23:47.095Z,57.32
2023-05-02T13:26:14.434Z,57.95
2023-05-02T13:28:42.074Z,57.66
2023-05-02T13:31:09.438Z,57.57
2023-05-02T13:33:37.059Z,58.11
2023-05-02T13:36:04.735Z,57.74
2023-05-02T13:38:32.700Z,57.30
2023-05-02T13:41:00.258Z,57.22
2023-05-02T13:43:27.686Z,57.21
2023-05-02T13:45:55.192Z,56.51
2023-05-02T13:48:22.648Z,56.46
2023-05-02T13:50:53.542Z,56.60
2023-05-02T13:53:22.181Z,56.52
2023-05-02T13:55:49.492Z,56.72
2023-05-02T13:58:16.797Z,56.89
2023-05-02T14:00:44.208Z,57.26
2023-05-02T14:03:11.832Z,57.93
2023-05-02T14:05:43.692Z,58.16
2023-05-02T14:08:11.537Z,58.46
2023-05-02T14:10:41.408Z,58.79
2023-05-02T14:13:08.777Z,59.35
2023-05-02T14:15:37.633Z,59.37
2023-05-02T14:18:05.466Z,59.50
2023-05-02T14:20:32.719Z,59.59
2023-05-02T14:23:00.169Z,59.56
2023-05-02T14:25:27.541Z,58.52
2023-05-02T14:27:54.864Z,58.28
2023-05-02T14:30:22.255Z,58.40
2023-05-02T14:32:49.857Z,59.80
2023-05-02T14:35:17.237Z,59.79
2023-05-02T14:37:45.748Z,61.30
2023-05-02T14:40:14.151Z,60.26
2023-05-02T14:42:42.293Z,61.66
2023-05-02T14:45:11.051Z,61.68
2023-05-02T14:47:38.947Z,60.27
2023-05-02T14:50:07.048Z,60.19
2023-05-02T14:52:34.615Z,60.39
2023-05-02T14:55:02.397Z,59.95
2023-05-02T14:57:29.833Z,60.31
2023-05-02T14:59:57.337Z,59.63
2023-05-02T15:02:25.075Z,59.96
2023-05-02T15:04:52.743Z,60.20
2023-05-02T15:07:20.684Z,60.28
2023-05-02T15:09:48.107Z,59.88
2023-05-02T15:12:15.615Z,60.56
2023-05-02T15:14:42.974Z,60.79
2023-05-02T15:17:10.591Z,60.76
2023-05-02T15:19:38.033Z,60.89
2023-05-02T15:22:05.441Z,61.73
2023-05-02T15:24:32.682Z,62.61
2023-05-02T15:27:00.199Z,65.17
2023-05-02T15:29:27.583Z,65.88
2023-05-02T15:31:55.030Z,67.96
2023-05-02T15:34:22.405Z,69.18
2023-05-02T15:36:49.776Z,69.06
2023-05-02T15:39:17.027Z,70.15
2023-05-02T15:41:47.726Z,71.30
2023-05-02T15:44:15.130Z,72.20
2023-05-02T15:46:47.030Z,70.91
2023-05-02T15:49:14.625Z,71.60
2023-05-02T15:51:42.734Z,71.65
2023-05-02T15:54:10.158Z,70.39
2023-05-02T15:56:37.817Z,71.16
2023-05-02T15:59:05.087Z,70.96
2023-05-02T16:01:32.354Z,70.79
2023-05-02T16:03:59.828Z,70.48
2023-05-02T16:06:27.751Z,72.35
2023-05-02T16:08:55.308Z,70.89
2023-05-02T16:11:22.499Z,72.38
2023-05-02T16:13:49.850Z,72.45
2023-05-02T16:16:17.148Z,71.69
2023-05-02T16:18:44.485Z,73.40
2023-05-02T16:21:11.784Z,72.51
2023-05-02T16:23:39.140Z,73.56
2023-05-02T16:26:06.354Z,73.15
2023-05-02T16:28:33.621Z,73.08
2023-05-02T16:31:11.296Z,73.42
2023-05-02T16:33:39.375Z,73.09
2023-05-02T16:36:07.091Z,74.15
2023-05-02T16:38:36.471Z,73.91
2023-05-02T16:41:05.187Z,74.67
2023-05-02T16:43:35.035Z,74.06
2023-05-02T16:46:03.469Z,75.32
2023-05-02T16:48:30.856Z,75.24
2023-05-02T16:50:58.601Z,74.99
2023-05-02T16:53:26.665Z,75.34
2023-05-02T16:55:54.430Z,75.40
2023-05-02T16:58:21.856Z,75.42
2023-05-02T17:00:49.191Z,76.00
2023-05-02T17:03:16.884Z,75.94
2023-05-02T17:05:44.137Z,76.93
2023-05-02T17:08:13.612Z,76.60
2023-05-02T17:10:40.879Z,78.30
2023-05-02T17:13:16.361Z,79.10
2023-05-02T17:15:43.816Z,78.91
2023-05-02T17:18:12.031Z,79.83
2023-05-02T17:20:39.742Z,80.40
2023-05-02T17:23:07.283Z,78.64
2023-05-02T17:25:34.580Z,80.03
2023-05-02T17:28:02.034Z,80.35
2023-05-02T17:30:30.587Z,79.80
2023-05-02T17:32:58.814Z,79.30
2023-05-02T17:35:26.082Z,79.51
2023-05-02T17:37:53.438Z,80.25
2023-05-02T17:40:20.957Z,80.93
2023-05-02T17:42:48.982Z,80.19
2023-05-02T17:45:16.833Z,80.27
2023-05-02T17:47:44.103Z,80.57
2023-05-02T17:50:11.772Z,81.66
2023-05-02T17:52:39.741Z,81.65
2023-05-02T17:55:08.542Z,81.85
2023-05-02T17:57:35.958Z,81.01
2023-05-02T18:00:07.452Z,81.31
2023-05-02T18:02:38.719Z,81.73
2023-05-02T18:05:07.267Z,81.80
2023-05-02T18:07:34.521Z,82.28
2023-05-02T18:10:04.211Z,81.32
2023-05-02T18:12:32.365Z,81.16
2023-05-02T18:15:00.386Z,81.51
2023-05-02T18:17:28.110Z,81.27
2023-05-02T18:19:55.494Z,81.01
2023-05-02T18:22:23.035Z,80.96
2023-05-02T18:24:50.403Z,81.70
2023-05-02T18:27:17.794Z,81.67
2023-05-02T18:29:45.126Z,81.36
2023-05-02T18:32:12.867Z,81.75
2023-05-02T18:34:40.175Z,81.93
2023-05-02T18:37:07.476Z,81.77
2023-05-02T18:39:35.429Z,82.22
2023-05-02T18:42:06.344Z,82.29
2023-05-02T18:44:33.677Z,82.05
2023-05-02T18:47:01.219Z,81.89
2023-05-02T18:49:28.533Z,82.37
2023-05-02T18:51:55.807Z,81.98
2023-05-02T18:54:23.528Z,81.32
2023-05-02T18:56:50.907Z,81.88
2023-05-02T18:59:19.037Z,82.00
2023-05-02T19:01:48.323Z,82.34
2023-05-02T19:04:15.797Z,81.70
2023-05-02T19:06:43.114Z,82.31
2023-05-02T19:09:13.269Z,82.42
2023-05-02T19:11:40.605Z,81.73
2023-05-02T19:14:07.852Z,81.80
2023-05-02T19:16:36.167Z,82.75
2023-05-02T19:19:03.841Z,82.45
2023-05-02T19:21:31.569Z,82.47
2023-05-02T19:23:59.382Z,82.73
2023-05-02T19:26:26.699Z,82.58
2023-05-02T19:28:53.989Z,82.04
2023-05-02T19:31:21.353Z,82.31
2023-05-02T19:33:52.027Z,82.77
2023-05-02T19:36:19.933Z,82.89
2023-05-02T19:38:52.100Z,82.89
2023-05-02T19:41:19.623Z,82.56
2023-05-02T19:43:46.910Z,82.49
2023-05-02T19:46:14.759Z,82.45
2023-05-02T19:48:42.220Z,82.16
2023-05-02T19:51:09.597Z,82.16
2023-05-02T19:53:37.345Z,82.40
2023-05-02T19:56:05.242Z,82.57
2023-05-02T19:58:32.451Z,83.23
2023-05-02T20:00:59.773Z,83.25
2023-05-02T20:03:27.280Z,83.23
2023-05-02T20:05:55.551Z,83.55
2023-05-02T20:08:26.361Z,83.78
2023-05-02T20:10:54.832Z,83.99
2023-05-02T20:13:22.159Z,84.16
2023-05-02T20:15:50.778Z,83.92
2023-05-02T20:18:18.034Z,83.94
2023-05-02T20:20:45.750Z,83.89
2023-05-02T20:23:13.530Z,83.86
2023-05-02T20:25:42.678Z,83.73
2023-05-02T20:28:10.715Z,84.23
2023-05-02T20:30:39.821Z,84.14
2023-05-02T20:33:15.552Z,83.87
2023-05-02T20:35:44.326Z,83.62
2023-05-02T20:38:12.117Z,83.88
2023-05-02T20:40:40.137Z,83.33
2023-05-02T20:43:07.945Z,83.70
2023-05-02T20:45:35.468Z,83.67
2023-05-02T20:48:02.763Z,83.50
2023-05-02T20:50:30.591Z,83.31
2023-05-02T20:52:58.031Z,82.89
2023-05-02T20:55:25.555Z,83.76
2023-05-02T20:57:53.466Z,83.46
2023-05-02T21:00:24.134Z,83.00
2023-05-02T21:02:51.456Z,83.32
2023-05-02T21:05:18.683Z,82.33
2023-05-02T21:07:46.569Z,82.85
2023-05-02T21:10:14.033Z,82.54
2023-05-02T21:12:41.392Z,82.89
2023-05-02T21:15:08.873Z,82.22
2023-05-02T21:17:38.935Z,83.04
2023-05-02T21:20:07.230Z,82.97
2023-05-02T21:22:34.434Z,82.72
2023-05-02T21:25:01.852Z,83.24
2023-05-02T21:27:29.207Z,83.20
2023-05-02T21:29:56.563Z,83.15
2023-05-02T21:32:25.976Z,82.94
2023-05-02T21:34:53.735Z,82.66
2023-05-02T21:37:20.970Z,83.06
2023-05-02T21:39:48.888Z,82.78
2023-05-02T21:42:16.149Z,83.00
2023-05-02T21:44:43.471Z,82.81
2023-05-02T21:47:10.746Z,82.98
2023-05-02T21:49:38.041Z,82.96
2023-05-02T21:52:05.410Z,83.17
2023-05-02T21:54:33.069Z,83.06
2023-05-02T21:57:00.413Z,83.64
2023-05-02T21:59:27.780Z,83.16
2023-05-02T22:01:55.019Z,83.29
2023-05-02T22:04:22.319Z,83.64
2023-05-02T22:06:51.460Z,83.04
2023-05-02T22:09:19.452Z,83.83
2023-05-02T22:11:47.254Z,83.48
2023-05-02T22:14:14.733Z,83.52
2023-05-02T22:16:42.003Z,83.52
2023-05-02T22:19:11.511Z,83.45
2023-05-02T22:21:38.740Z,83.38
2023-05-02T22:24:06.711Z,84.10
2023-05-02T22:26:33.995Z,83.92
2023-05-02T22:29:01.249Z,83.71
2023-05-02T22:31:28.644Z,83.43
2023-05-02T22:33:56.067Z,83.76
2023-05-02T22:36:23.328Z,83.75
2023-05-02T22:38:51.342Z,83.97
2023-05-02T22:41:18.562Z,83.59
2023-05-02T22:43:45.870Z,83.85
2023-05-02T22:46:13.103Z,83.45
2023-05-02T22:48:40.537Z,84.04
2023-05-02T22:51:07.767Z,83.62
2023-05-02T22:53:35.379Z,83.67
2023-05-02T22:56:03.117Z,83.98
2023-05-02T22:58:30.482Z,83.53
2023-05-02T23:00:58.206Z,83.24
2023-05-02T23:03:25.607Z,83.92
2023-05-02T23:05:52.865Z,83.53
2023-05-02T23:08:20.150Z,83.68
2023-05-02T23:10:47.391Z,83.38
2023-05-02T23:13:14.734Z,83.76
2023-05-02T23:15:42.148Z,83.71
2023-05-02T23:18:09.648Z,83.64
2023-05-02T23:20:36.892Z,83.79
2023-05-02T23:23:04.295Z,83.44
2023-05-02T23:25:31.709Z,83.83
2023-05-02T23:27:58.999Z,83.10
2023-05-02T23:30:26.254Z,83.15
2023-05-02T23:32:53.814Z,83.38
2023-05-02T23:35:21.161Z,83.48
2023-05-02T23:37:49.214Z,83.77
2023-05-02T23:40:16.485Z,83.59
2023-05-02T23:42:43.808Z,83.44
2023-05-02T23:45:11.617Z,83.73
2023-05-02T23:47:38.935Z,83.39
2023-05-02T23:50:06.775Z,83.63
2023-05-02T23:52:34.251Z,83.68
2023-05-02T23:55:01.695Z,83.78
2023-05-02T23:57:32.003Z,83.43
2023-05-02T23:59:59.297Z,83.61
